sensor_id;sensor_type;location;lat;lon;timestamp;pressure;altitude;pressure_sealevel;temperature;humidity
3428;BME280;1727;42.624;23.406;2022-08-23T00:02:06;94346.13;;;22.19;89.83
3428;BME280;1727;42.624;23.406;2022-08-23T00:04:36;94353.38;;;22.12;90.24
3428;BME280;1727;42.624;23.406;2022-08-23T00:07:06;94345.09;;;22.20;90.75
3428;BME280;1727;42.624;23.406;2022-08-23T00:09:33;94344.78;;;22.04;91.23
3428;BME280;1727;42.624;23.406;2022-08-23T00:12:08;94343.88;;;22.16;92.67
3428;BME280;1727;42.624;23.406;2022-08-23T00:14:37;94350.91;;;22.11;92.62
3428;BME280;1727;42.624;23.406;2022-08-23T00:17:06;94347.53;;;22.22;92.43
3428;BME280;1727;42.624;23.406;2022-08-23T00:19:35;94345.47;;;22.31;91.93
3428;BME280;1727;42.624;23.406;2022-08-23T00:22:05;94346.94;;;22.27;91.72
3428;BME280;1727;42.624;23.406;2022-08-23T00:24:33;94348.03;;;22.12;92.43
3428;BME280;1727;42.624;23.406;2022-08-23T00:27:02;94344.56;;;22.05;93.04
3428;BME280;1727;42.624;23.406;2022-08-23T00:29:35;94344.75;;;22.10;93.50
3428;BME280;1727;42.624;23.406;2022-08-23T00:32:03;94335.53;;;22.00;93.44
3428;BME280;1727;42.624;23.406;2022-08-23T00:34:32;94340.66;;;22.01;94.16
3428;BME280;1727;42.624;23.406;2022-08-23T00:37:00;94331.56;;;22.15;93.86
3428;BME280;1727;42.624;23.406;2022-08-23T00:39:27;94338.47;;;22.30;93.93
3428;BME280;1727;42.624;23.406;2022-08-23T00:41:57;94330.78;;;22.40;92.45
3428;BME280;1727;42.624;23.406;2022-08-23T00:44:28;94328.22;;;22.27;92.63
3428;BME280;1727;42.624;23.406;2022-08-23T00:47:15;94334.50;;;22.39;91.81
3428;BME280;1727;42.624;23.406;2022-08-23T00:50:12;94336.69;;;22.48;91.51
3428;BME280;1727;42.624;23.406;2022-08-23T00:52:45;94336.47;;;22.50;91.37
3428;BME280;1727;42.624;23.406;2022-08-23T00:55:16;94327.16;;;22.59;92.14
3428;BME280;1727;42.624;23.406;2022-08-23T00:57:44;94339.88;;;22.64;91.22
3428;BME280;1727;42.624;23.406;2022-08-23T01:00:12;94345.06;;;22.59;90.77
3428;BME280;1727;42.624;23.406;2022-08-23T01:02:40;94354.28;;;22.63;89.85
3428;BME280;1727;42.624;23.406;2022-08-23T01:05:08;94346.66;;;22.66;90.16
3428;BME280;1727;42.624;23.406;2022-08-23T01:07:43;94355.09;;;22.63;89.60
3428;BME280;1727;42.624;23.406;2022-08-23T01:10:17;94360.09;;;22.53;89.13
3428;BME280;1727;42.624;23.406;2022-08-23T01:12:51;94361.84;;;22.41;89.84
3428;BME280;1727;42.624;23.406;2022-08-23T01:15:23;94367.38;;;22.01;92.02
3428;BME280;1727;42.624;23.406;2022-08-23T01:17:55;94366.56;;;21.94;93.78
3428;BME280;1727;42.624;23.406;2022-08-23T01:20:37;94356.22;;;21.66;95.54
3428;BME280;1727;42.624;23.406;2022-08-23T01:23:18;94356.81;;;21.75;95.59
3428;BME280;1727;42.624;23.406;2022-08-23T01:25:46;94352.72;;;21.72;96.44
3428;BME280;1727;42.624;23.406;2022-08-23T01:28:14;94359.63;;;21.86;96.58
3428;BME280;1727;42.624;23.406;2022-08-23T01:30:43;94356.19;;;21.79;96.24
3428;BME280;1727;42.624;23.406;2022-08-23T01:33:11;94343.47;;;21.75;96.49
3428;BME280;1727;42.624;23.406;2022-08-23T01:35:40;94341.56;;;21.82;96.45
3428;BME280;1727;42.624;23.406;2022-08-23T01:38:09;94345.03;;;21.89;96.61
3428;BME280;1727;42.624;23.406;2022-08-23T01:40:39;94345.41;;;21.99;96.82
3428;BME280;1727;42.624;23.406;2022-08-23T01:43:06;94354.47;;;21.98;95.22
3428;BME280;1727;42.624;23.406;2022-08-23T01:45:34;94364.72;;;22.01;95.68
3428;BME280;1727;42.624;23.406;2022-08-23T01:48:02;94361.44;;;21.99;95.73
3428;BME280;1727;42.624;23.406;2022-08-23T01:50:29;94352.16;;;22.02;95.08
3428;BME280;1727;42.624;23.406;2022-08-23T01:52:56;94355.88;;;22.01;94.08
3428;BME280;1727;42.624;23.406;2022-08-23T01:55:23;94356.50;;;21.96;93.75
3428;BME280;1727;42.624;23.406;2022-08-23T01:57:54;94346.06;;;21.88;93.02
3428;BME280;1727;42.624;23.406;2022-08-23T02:00:24;94346.22;;;21.93;93.25
3428;BME280;1727;42.624;23.406;2022-08-23T02:02:51;94352.19;;;21.95;92.15
3428;BME280;1727;42.624;23.406;2022-08-23T02:05:18;94352.38;;;22.00;92.10
3428;BME280;1727;42.624;23.406;2022-08-23T02:07:46;94345.19;;;22.01;91.94
3428;BME280;1727;42.624;23.406;2022-08-23T02:10:13;94354.47;;;21.98;91.32
3428;BME280;1727;42.624;23.406;2022-08-23T02:12:40;94354.63;;;21.96;91.12
3428;BME280;1727;42.624;23.406;2022-08-23T02:15:09;94358.78;;;21.92;90.88
3428;BME280;1727;42.624;23.406;2022-08-23T02:17:36;94361.66;;;21.98;91.42
3428;BME280;1727;42.624;23.406;2022-08-23T02:20:04;94363.50;;;22.04;91.30
3428;BME280;1727;42.624;23.406;2022-08-23T02:22:31;94351.91;;;22.16;91.52
3428;BME280;1727;42.624;23.406;2022-08-23T02:24:58;94354.75;;;22.21;90.02
3428;BME280;1727;42.624;23.406;2022-08-23T02:27:26;94356.59;;;22.21;90.35
3428;BME280;1727;42.624;23.406;2022-08-23T02:29:52;94352.16;;;22.08;90.00
3428;BME280;1727;42.624;23.406;2022-08-23T02:32:21;94359.56;;;22.06;90.33
3428;BME280;1727;42.624;23.406;2022-08-23T02:34:47;94370.88;;;21.95;90.49
3428;BME280;1727;42.624;23.406;2022-08-23T02:37:14;94373.38;;;21.90;91.07
3428;BME280;1727;42.624;23.406;2022-08-23T02:39:41;94369.88;;;21.89;91.51
3428;BME280;1727;42.624;23.406;2022-08-23T02:42:09;94366.78;;;21.92;91.21
3428;BME280;1727;42.624;23.406;2022-08-23T02:44:36;94369.66;;;21.91;89.82
3428;BME280;1727;42.624;23.406;2022-08-23T02:47:05;94361.84;;;21.96;89.67
3428;BME280;1727;42.624;23.406;2022-08-23T02:49:35;94371.94;;;21.87;89.67
3428;BME280;1727;42.624;23.406;2022-08-23T02:52:03;94358.41;;;21.82;89.52
3428;BME280;1727;42.624;23.406;2022-08-23T02:54:30;94360.88;;;21.84;89.19
3428;BME280;1727;42.624;23.406;2022-08-23T02:56:57;94361.13;;;21.76;89.37
3428;BME280;1727;42.624;23.406;2022-08-23T02:59:24;94354.56;;;21.72;89.41
3428;BME280;1727;42.624;23.406;2022-08-23T03:01:51;94352.09;;;21.70;89.99
3428;BME280;1727;42.624;23.406;2022-08-23T03:04:18;94350.69;;;21.61;90.45
3428;BME280;1727;42.624;23.406;2022-08-23T03:06:46;94340.41;;;21.64;90.10
3428;BME280;1727;42.624;23.406;2022-08-23T03:09:13;94340.41;;;21.64;91.00
3428;BME280;1727;42.624;23.406;2022-08-23T03:11:43;94346.13;;;21.75;90.07
3428;BME280;1727;42.624;23.406;2022-08-23T03:14:10;94336.41;;;21.87;90.42
3428;BME280;1727;42.624;23.406;2022-08-23T03:16:37;94326.28;;;22.02;89.67
3428;BME280;1727;42.624;23.406;2022-08-23T03:19:04;94326.66;;;22.12;88.77
3428;BME280;1727;42.624;23.406;2022-08-23T03:21:31;94333.38;;;22.21;89.81
3428;BME280;1727;42.624;23.406;2022-08-23T03:23:59;94338.28;;;22.24;88.76
3428;BME280;1727;42.624;23.406;2022-08-23T03:26:26;94336.41;;;22.32;88.83
3428;BME280;1727;42.624;23.406;2022-08-23T03:28:53;94338.59;;;22.41;88.46
3428;BME280;1727;42.624;23.406;2022-08-23T03:31:23;94334.66;;;22.44;87.18
3428;BME280;1727;42.624;23.406;2022-08-23T03:33:50;94346.41;;;22.43;87.75
3428;BME280;1727;42.624;23.406;2022-08-23T03:36:18;94346.22;;;22.38;86.30
3428;BME280;1727;42.624;23.406;2022-08-23T03:38:46;94343.56;;;22.00;86.35
3428;BME280;1727;42.624;23.406;2022-08-23T03:41:14;94346.22;;;21.93;87.75
3428;BME280;1727;42.624;23.406;2022-08-23T03:43:41;94351.47;;;21.75;88.71
3428;BME280;1727;42.624;23.406;2022-08-23T03:46:08;94362.59;;;21.58;88.60
3428;BME280;1727;42.624;23.406;2022-08-23T03:48:48;94368.00;;;21.32;89.03
3428;BME280;1727;42.624;23.406;2022-08-23T03:51:15;94369.69;;;21.26;89.75
3428;BME280;1727;42.624;23.406;2022-08-23T03:53:42;94376.03;;;21.19;90.52
3428;BME280;1727;42.624;23.406;2022-08-23T03:56:22;94377.66;;;21.20;91.01
3428;BME280;1727;42.624;23.406;2022-08-23T03:58:49;94384.44;;;21.22;91.37
3428;BME280;1727;42.624;23.406;2022-08-23T04:01:16;94382.19;;;21.26;92.08
3428;BME280;1727;42.624;23.406;2022-08-23T04:03:42;94392.66;;;21.21;92.82
3428;BME280;1727;42.624;23.406;2022-08-23T04:06:09;94393.06;;;21.18;93.20
3428;BME280;1727;42.624;23.406;2022-08-23T04:08:36;94391.00;;;21.07;94.05
3428;BME280;1727;42.624;23.406;2022-08-23T04:11:04;94387.75;;;20.91;94.98
3428;BME280;1727;42.624;23.406;2022-08-23T04:13:33;94386.94;;;20.84;96.25
3428;BME280;1727;42.624;23.406;2022-08-23T04:16:01;94387.53;;;20.80;96.63
3428;BME280;1727;42.624;23.406;2022-08-23T04:18:29;94391.63;;;20.69;96.69
3428;BME280;1727;42.624;23.406;2022-08-23T04:20:57;94383.44;;;20.57;97.78
3428;BME280;1727;42.624;23.406;2022-08-23T04:23:25;94387.66;;;20.38;98.55
3428;BME280;1727;42.624;23.406;2022-08-23T04:25:53;94380.69;;;20.37;98.76
3428;BME280;1727;42.624;23.406;2022-08-23T04:28:20;94385.22;;;20.37;98.92
3428;BME280;1727;42.624;23.406;2022-08-23T04:30:49;94382.53;;;20.37;99.47
3428;BME280;1727;42.624;23.406;2022-08-23T04:33:16;94383.59;;;20.42;99.60
3428;BME280;1727;42.624;23.406;2022-08-23T04:35:43;94391.56;;;20.29;99.24
3428;BME280;1727;42.624;23.406;2022-08-23T04:38:11;94397.03;;;20.21;99.02
3428;BME280;1727;42.624;23.406;2022-08-23T04:40:38;94397.44;;;20.05;98.38
3428;BME280;1727;42.624;23.406;2022-08-23T04:43:22;94397.66;;;20.17;98.34
3428;BME280;1727;42.624;23.406;2022-08-23T04:45:51;94406.25;;;20.19;99.09
3428;BME280;1727;42.624;23.406;2022-08-23T04:48:17;94408.97;;;20.32;99.39
3428;BME280;1727;42.624;23.406;2022-08-23T04:50:44;94401.66;;;20.40;97.99
3428;BME280;1727;42.624;23.406;2022-08-23T04:53:11;94410.88;;;20.45;96.07
3428;BME280;1727;42.624;23.406;2022-08-23T04:55:38;94416.81;;;20.47;95.87
3428;BME280;1727;42.624;23.406;2022-08-23T04:58:05;94419.72;;;20.58;96.50
3428;BME280;1727;42.624;23.406;2022-08-23T05:00:32;94426.72;;;20.66;94.74
3428;BME280;1727;42.624;23.406;2022-08-23T05:03:00;94430.59;;;20.77;94.11
3428;BME280;1727;42.624;23.406;2022-08-23T05:05:27;94435.16;;;20.83;93.54
3428;BME280;1727;42.624;23.406;2022-08-23T05:07:54;94439.25;;;20.92;94.09
3428;BME280;1727;42.624;23.406;2022-08-23T05:10:21;94425.69;;;21.00;93.83
3428;BME280;1727;42.624;23.406;2022-08-23T05:12:47;94432.47;;;21.09;93.37
3428;BME280;1727;42.624;23.406;2022-08-23T05:15:14;94435.34;;;21.21;93.15
3428;BME280;1727;42.624;23.406;2022-08-23T05:17:41;94441.94;;;21.31;92.71
3428;BME280;1727;42.624;23.406;2022-08-23T05:20:10;94453.41;;;21.52;93.32
3428;BME280;1727;42.624;23.406;2022-08-23T05:22:39;94450.28;;;21.81;92.25
3428;BME280;1727;42.624;23.406;2022-08-23T05:25:07;94445.06;;;22.13;89.95
3428;BME280;1727;42.624;23.406;2022-08-23T05:27:33;94452.56;;;22.36;88.22
3428;BME280;1727;42.624;23.406;2022-08-23T05:30:01;94448.13;;;22.54;87.87
3428;BME280;1727;42.624;23.406;2022-08-23T05:32:28;94450.66;;;22.88;86.07
3428;BME280;1727;42.624;23.406;2022-08-23T05:34:55;94459.41;;;23.26;84.84
3428;BME280;1727;42.624;23.406;2022-08-23T05:37:23;94449.69;;;23.57;81.09
3428;BME280;1727;42.624;23.406;2022-08-23T05:39:50;94456.28;;;23.79;79.78
3428;BME280;1727;42.624;23.406;2022-08-23T05:42:17;94455.16;;;23.87;78.42
3428;BME280;1727;42.624;23.406;2022-08-23T05:44:44;94457.03;;;23.86;78.49
3428;BME280;1727;42.624;23.406;2022-08-23T05:47:12;94458.59;;;23.94;77.65
3428;BME280;1727;42.624;23.406;2022-08-23T05:49:39;94471.16;;;23.93;77.76
3428;BME280;1727;42.624;23.406;2022-08-23T05:52:09;94465.06;;;24.23;77.71
3428;BME280;1727;42.624;23.406;2022-08-23T05:54:38;94478.31;;;24.54;75.72
3428;BME280;1727;42.624;23.406;2022-08-23T05:57:06;94475.00;;;24.89;75.22
3428;BME280;1727;42.624;23.406;2022-08-23T05:59:34;94479.53;;;25.18;73.04
3428;BME280;1727;42.624;23.406;2022-08-23T06:02:01;94460.75;;;25.42;72.80
3428;BME280;1727;42.624;23.406;2022-08-23T06:04:28;94467.63;;;25.38;71.53
3428;BME280;1727;42.624;23.406;2022-08-23T06:06:55;94467.31;;;25.46;71.58
3428;BME280;1727;42.624;23.406;2022-08-23T06:09:23;94470.38;;;25.49;70.70
3428;BME280;1727;42.624;23.406;2022-08-23T06:11:52;94477.63;;;25.72;71.25
3428;BME280;1727;42.624;23.406;2022-08-23T06:14:19;94479.59;;;26.00;69.62
3428;BME280;1727;42.624;23.406;2022-08-23T06:16:47;94486.84;;;26.23;68.90
3428;BME280;1727;42.624;23.406;2022-08-23T06:19:14;94481.19;;;26.48;67.87
3428;BME280;1727;42.624;23.406;2022-08-23T06:21:42;94495.66;;;26.59;66.71
3428;BME280;1727;42.624;23.406;2022-08-23T06:24:09;94486.69;;;26.81;66.80
3428;BME280;1727;42.624;23.406;2022-08-23T06:26:41;94489.38;;;26.81;65.28
3428;BME280;1727;42.624;23.406;2022-08-23T06:29:12;94491.47;;;26.63;65.53
3428;BME280;1727;42.624;23.406;2022-08-23T06:31:40;94496.28;;;26.89;64.95
3428;BME280;1727;42.624;23.406;2022-08-23T06:34:19;94499.09;;;26.82;64.64
3428;BME280;1727;42.624;23.406;2022-08-23T06:36:47;94501.31;;;26.85;65.06
3428;BME280;1727;42.624;23.406;2022-08-23T06:39:15;94494.16;;;26.63;65.93
3428;BME280;1727;42.624;23.406;2022-08-23T06:41:43;94502.28;;;26.79;64.47
3428;BME280;1727;42.624;23.406;2022-08-23T06:44:11;94505.75;;;26.92;64.38
3428;BME280;1727;42.624;23.406;2022-08-23T06:46:38;94503.53;;;27.00;64.25
3428;BME280;1727;42.624;23.406;2022-08-23T06:49:07;94503.16;;;27.25;63.92
3428;BME280;1727;42.624;23.406;2022-08-23T06:51:35;94507.25;;;27.28;61.80
3428;BME280;1727;42.624;23.406;2022-08-23T06:54:05;94504.88;;;27.31;62.76
3428;BME280;1727;42.624;23.406;2022-08-23T06:56:32;94510.34;;;27.36;61.53
3428;BME280;1727;42.624;23.406;2022-08-23T06:58:59;94506.94;;;27.24;61.21
3428;BME280;1727;42.624;23.406;2022-08-23T07:01:33;94520.75;;;27.16;62.96
3428;BME280;1727;42.624;23.406;2022-08-23T07:04:04;94524.59;;;27.03;62.89
3428;BME280;1727;42.624;23.406;2022-08-23T07:06:32;94518.22;;;27.09;62.08
3428;BME280;1727;42.624;23.406;2022-08-23T07:08:59;94511.63;;;27.17;61.54
3428;BME280;1727;42.624;23.406;2022-08-23T07:11:27;94511.97;;;27.21;62.21
3428;BME280;1727;42.624;23.406;2022-08-23T07:13:55;94511.69;;;27.05;61.94
3428;BME280;1727;42.624;23.406;2022-08-23T07:16:23;94505.34;;;27.11;62.99
3428;BME280;1727;42.624;23.406;2022-08-23T07:18:51;94500.22;;;27.27;61.49
3428;BME280;1727;42.624;23.406;2022-08-23T07:21:20;94506.28;;;27.34;62.32
3428;BME280;1727;42.624;23.406;2022-08-23T07:23:46;94506.69;;;27.42;61.49
3428;BME280;1727;42.624;23.406;2022-08-23T07:26:15;94510.53;;;27.46;61.64
3428;BME280;1727;42.624;23.406;2022-08-23T07:28:43;94505.19;;;27.63;63.02
3428;BME280;1727;42.624;23.406;2022-08-23T07:31:12;94507.53;;;27.60;62.67
3428;BME280;1727;42.624;23.406;2022-08-23T07:33:40;94502.69;;;27.45;61.90
3428;BME280;1727;42.624;23.406;2022-08-23T07:36:12;94503.75;;;27.27;62.45
3428;BME280;1727;42.624;23.406;2022-08-23T07:38:39;94508.63;;;26.73;63.37
3428;BME280;1727;42.624;23.406;2022-08-23T07:41:06;94508.94;;;26.48;64.96
3428;BME280;1727;42.624;23.406;2022-08-23T07:43:33;94505.44;;;26.13;66.78
3428;BME280;1727;42.624;23.406;2022-08-23T07:46:00;94512.25;;;25.80;67.79
3428;BME280;1727;42.624;23.406;2022-08-23T07:48:27;94504.59;;;25.54;68.85
3428;BME280;1727;42.624;23.406;2022-08-23T07:50:58;94501.06;;;25.42;69.06
3428;BME280;1727;42.624;23.406;2022-08-23T07:53:27;94510.50;;;25.32;69.09
3428;BME280;1727;42.624;23.406;2022-08-23T07:55:54;94511.56;;;25.31;69.62
3428;BME280;1727;42.624;23.406;2022-08-23T07:58:23;94510.38;;;25.27;71.72
3428;BME280;1727;42.624;23.406;2022-08-23T08:00:51;94513.41;;;25.19;72.40
3428;BME280;1727;42.624;23.406;2022-08-23T08:03:18;94514.75;;;25.10;72.91
3428;BME280;1727;42.624;23.406;2022-08-23T08:05:45;94518.53;;;24.91;73.88
3428;BME280;1727;42.624;23.406;2022-08-23T08:08:12;94517.50;;;24.74;74.44
3428;BME280;1727;42.624;23.406;2022-08-23T08:10:41;94525.66;;;24.67;75.31
3428;BME280;1727;42.624;23.406;2022-08-23T08:13:08;94526.38;;;24.56;74.53
3428;BME280;1727;42.624;23.406;2022-08-23T08:15:39;94528.25;;;24.55;75.82
3428;BME280;1727;42.624;23.406;2022-08-23T08:18:06;94523.06;;;24.42;76.77
3428;BME280;1727;42.624;23.406;2022-08-23T08:20:33;94530.66;;;24.45;76.89
3428;BME280;1727;42.624;23.406;2022-08-23T08:23:01;94536.47;;;24.42;75.31
3428;BME280;1727;42.624;23.406;2022-08-23T08:25:28;94532.47;;;24.33;76.46
3428;BME280;1727;42.624;23.406;2022-08-23T08:28:00;94531.78;;;24.37;76.68
3428;BME280;1727;42.624;23.406;2022-08-23T08:30:27;94531.47;;;24.46;77.16
3428;BME280;1727;42.624;23.406;2022-08-23T08:32:53;94521.69;;;24.51;76.46
3428;BME280;1727;42.624;23.406;2022-08-23T08:35:20;94527.06;;;24.69;76.72
3428;BME280;1727;42.624;23.406;2022-08-23T08:37:47;94530.63;;;25.12;75.00
3428;BME280;1727;42.624;23.406;2022-08-23T08:40:19;94534.69;;;25.44;73.41
3428;BME280;1727;42.624;23.406;2022-08-23T08:43:02;94532.03;;;25.56;71.80
3428;BME280;1727;42.624;23.406;2022-08-23T08:45:55;94531.69;;;25.64;72.15
3428;BME280;1727;42.624;23.406;2022-08-23T08:48:25;94526.47;;;25.69;71.57
3428;BME280;1727;42.624;23.406;2022-08-23T08:50:55;94526.63;;;25.74;72.08
3428;BME280;1727;42.624;23.406;2022-08-23T08:53:26;94522.28;;;25.85;72.19
3428;BME280;1727;42.624;23.406;2022-08-23T08:55:57;94522.50;;;25.95;72.73
3428;BME280;1727;42.624;23.406;2022-08-23T08:58:32;94523.09;;;25.85;68.06
3428;BME280;1727;42.624;23.406;2022-08-23T09:01:03;94511.91;;;25.77;67.89
3428;BME280;1727;42.624;23.406;2022-08-23T09:03:32;94508.81;;;25.73;68.14
3428;BME280;1727;42.624;23.406;2022-08-23T09:06:02;94506.03;;;25.68;69.07
3428;BME280;1727;42.624;23.406;2022-08-23T09:08:42;94496.66;;;25.71;68.60
3428;BME280;1727;42.624;23.406;2022-08-23T09:11:17;94496.69;;;25.82;68.75
3428;BME280;1727;42.624;23.406;2022-08-23T09:14:06;94502.88;;;26.06;67.86
3428;BME280;1727;42.624;23.406;2022-08-23T09:16:48;94500.06;;;26.36;67.53
3428;BME280;1727;42.624;23.406;2022-08-23T09:19:16;94498.16;;;26.48;67.81
3428;BME280;1727;42.624;23.406;2022-08-23T09:21:45;94499.91;;;26.54;66.83
3428;BME280;1727;42.624;23.406;2022-08-23T09:24:13;94501.75;;;26.66;66.60
3428;BME280;1727;42.624;23.406;2022-08-23T09:26:40;94498.38;;;26.99;65.44
3428;BME280;1727;42.624;23.406;2022-08-23T09:29:19;94498.06;;;27.12;65.34
3428;BME280;1727;42.624;23.406;2022-08-23T09:31:48;94501.44;;;27.19;65.23
3428;BME280;1727;42.624;23.406;2022-08-23T09:34:19;94492.81;;;27.34;64.30
3428;BME280;1727;42.624;23.406;2022-08-23T09:36:47;94497.69;;;27.37;64.42
3428;BME280;1727;42.624;23.406;2022-08-23T09:39:26;94497.13;;;27.35;63.73
3428;BME280;1727;42.624;23.406;2022-08-23T09:41:55;94501.03;;;27.27;62.92
3428;BME280;1727;42.624;23.406;2022-08-23T09:44:35;94500.41;;;27.37;63.96
3428;BME280;1727;42.624;23.406;2022-08-23T09:47:09;94498.28;;;27.39;63.13
3428;BME280;1727;42.624;23.406;2022-08-23T09:49:38;94501.16;;;27.49;62.25
3428;BME280;1727;42.624;23.406;2022-08-23T09:52:12;94506.00;;;27.64;61.44
3428;BME280;1727;42.624;23.406;2022-08-23T09:54:41;94502.78;;;27.50;62.34
3428;BME280;1727;42.624;23.406;2022-08-23T09:57:09;94508.44;;;27.49;62.16
3428;BME280;1727;42.624;23.406;2022-08-23T09:59:42;94502.53;;;27.35;61.47
3428;BME280;1727;42.624;23.406;2022-08-23T10:02:15;94493.69;;;27.23;63.79
3428;BME280;1727;42.624;23.406;2022-08-23T10:04:56;94490.97;;;27.06;63.17
3428;BME280;1727;42.624;23.406;2022-08-23T10:07:27;94508.91;;;27.00;63.33
3428;BME280;1727;42.624;23.406;2022-08-23T10:10:12;94489.72;;;26.85;64.67
3428;BME280;1727;42.624;23.406;2022-08-23T10:12:39;94496.06;;;26.79;63.84
3428;BME280;1727;42.624;23.406;2022-08-23T10:15:08;94500.47;;;26.57;65.30
3428;BME280;1727;42.624;23.406;2022-08-23T10:17:39;94504.44;;;26.66;65.80
3428;BME280;1727;42.624;23.406;2022-08-23T10:20:18;94501.94;;;26.76;66.02
3428;BME280;1727;42.624;23.406;2022-08-23T10:22:52;94496.38;;;26.94;66.08
3428;BME280;1727;42.624;23.406;2022-08-23T10:25:25;94484.03;;;27.10;63.85
3428;BME280;1727;42.624;23.406;2022-08-23T10:28:02;94497.28;;;27.28;63.63
3428;BME280;1727;42.624;23.406;2022-08-23T10:30:56;94488.19;;;27.17;62.87
3428;BME280;1727;42.624;23.406;2022-08-23T10:33:29;94475.50;;;27.30;62.27
3428;BME280;1727;42.624;23.406;2022-08-23T10:36:07;94478.25;;;27.35;61.39
3428;BME280;1727;42.624;23.406;2022-08-23T10:38:42;94471.50;;;27.49;60.96
3428;BME280;1727;42.624;23.406;2022-08-23T10:41:32;94476.09;;;27.49;62.22
3428;BME280;1727;42.624;23.406;2022-08-23T10:44:24;94471.66;;;27.42;61.96
3428;BME280;1727;42.624;23.406;2022-08-23T10:47:06;94470.84;;;27.25;60.56
3428;BME280;1727;42.624;23.406;2022-08-23T10:49:39;94471.41;;;27.27;60.68
3428;BME280;1727;42.624;23.406;2022-08-23T10:52:17;94469.13;;;27.36;60.74
3428;BME280;1727;42.624;23.406;2022-08-23T10:54:49;94470.75;;;27.37;61.18
3428;BME280;1727;42.624;23.406;2022-08-23T10:57:31;94466.50;;;27.41;60.57
3428;BME280;1727;42.624;23.406;2022-08-23T11:00:00;94471.50;;;27.49;62.49
3428;BME280;1727;42.624;23.406;2022-08-23T11:02:34;94473.47;;;27.54;58.73
3428;BME280;1727;42.624;23.406;2022-08-23T11:05:16;94475.16;;;27.60;57.86
3428;BME280;1727;42.624;23.406;2022-08-23T11:07:56;94476.09;;;27.65;58.79
3428;BME280;1727;42.624;23.406;2022-08-23T11:10:25;94474.34;;;27.59;59.03
3428;BME280;1727;42.624;23.406;2022-08-23T11:12:58;94479.91;;;27.19;58.83
3428;BME280;1727;42.624;23.406;2022-08-23T11:15:31;94468.97;;;27.26;59.78
3428;BME280;1727;42.624;23.406;2022-08-23T11:18:06;94470.34;;;27.45;59.86
3428;BME280;1727;42.624;23.406;2022-08-23T11:20:57;94460.56;;;27.56;61.01
3428;BME280;1727;42.624;23.406;2022-08-23T11:23:39;94467.41;;;27.46;58.85
3428;BME280;1727;42.624;23.406;2022-08-23T11:26:09;94466.28;;;27.59;59.36
3428;BME280;1727;42.624;23.406;2022-08-23T11:28:41;94466.78;;;27.73;58.52
3428;BME280;1727;42.624;23.406;2022-08-23T11:31:19;94472.09;;;27.85;58.47
3428;BME280;1727;42.624;23.406;2022-08-23T11:33:51;94466.63;;;27.80;58.47
3428;BME280;1727;42.624;23.406;2022-08-23T11:36:25;94464.38;;;27.60;59.65
3428;BME280;1727;42.624;23.406;2022-08-23T11:39:08;94460.81;;;27.54;57.59
3428;BME280;1727;42.624;23.406;2022-08-23T11:42:00;94452.47;;;27.39;59.63
3428;BME280;1727;42.624;23.406;2022-08-23T11:44:35;94458.25;;;27.31;59.89
3428;BME280;1727;42.624;23.406;2022-08-23T11:47:05;94448.13;;;27.38;60.66
3428;BME280;1727;42.624;23.406;2022-08-23T11:49:58;94446.34;;;27.60;59.71
3428;BME280;1727;42.624;23.406;2022-08-23T11:52:51;94448.22;;;27.60;57.87
3428;BME280;1727;42.624;23.406;2022-08-23T11:55:28;94449.22;;;27.70;58.18
3428;BME280;1727;42.624;23.406;2022-08-23T11:58:18;94447.50;;;27.64;58.86
3428;BME280;1727;42.624;23.406;2022-08-23T12:00:54;94455.41;;;27.71;60.15
3428;BME280;1727;42.624;23.406;2022-08-23T12:03:25;94446.25;;;27.72;63.95
3428;BME280;1727;42.624;23.406;2022-08-23T12:06:36;94445.63;;;27.65;63.86
3428;BME280;1727;42.624;23.406;2022-08-23T12:09:06;94439.88;;;27.61;64.80
3428;BME280;1727;42.624;23.406;2022-08-23T12:12:08;94440.53;;;27.35;65.24
3428;BME280;1727;42.624;23.406;2022-08-23T12:14:48;94441.94;;;27.21;66.46
3428;BME280;1727;42.624;23.406;2022-08-23T12:20:26;94438.31;;;26.86;67.01
3428;BME280;1727;42.624;23.406;2022-08-23T12:23:04;94436.34;;;26.82;67.11
3428;BME280;1727;42.624;23.406;2022-08-23T12:25:34;94438.88;;;26.72;67.65
3428;BME280;1727;42.624;23.406;2022-08-23T12:28:09;94429.25;;;26.76;67.32
3428;BME280;1727;42.624;23.406;2022-08-23T12:30:54;94432.69;;;26.88;65.62
3428;BME280;1727;42.624;23.406;2022-08-23T12:33:28;94436.19;;;26.89;65.26
3428;BME280;1727;42.624;23.406;2022-08-23T12:36:08;94431.25;;;26.97;66.88
3428;BME280;1727;42.624;23.406;2022-08-23T12:38:45;94423.28;;;27.02;67.01
3428;BME280;1727;42.624;23.406;2022-08-23T12:41:18;94425.56;;;27.10;66.75
3428;BME280;1727;42.624;23.406;2022-08-23T12:43:58;94432.09;;;27.14;65.03
3428;BME280;1727;42.624;23.406;2022-08-23T12:46:31;94432.09;;;27.14;65.97
3428;BME280;1727;42.624;23.406;2022-08-23T12:48:58;94425.66;;;27.15;64.99
3428;BME280;1727;42.624;23.406;2022-08-23T12:51:25;94417.13;;;27.19;64.96
3428;BME280;1727;42.624;23.406;2022-08-23T12:53:53;94425.16;;;27.02;64.32
3428;BME280;1727;42.624;23.406;2022-08-23T12:56:24;94425.78;;;26.92;66.92
3428;BME280;1727;42.624;23.406;2022-08-23T12:58:53;94418.19;;;26.89;67.01
3428;BME280;1727;42.624;23.406;2022-08-23T13:01:24;94421.84;;;26.83;67.64
3428;BME280;1727;42.624;23.406;2022-08-23T13:03:54;94416.59;;;26.76;67.67
3428;BME280;1727;42.624;23.406;2022-08-23T13:06:25;94407.22;;;26.79;66.07
3428;BME280;1727;42.624;23.406;2022-08-23T13:08:58;94408.13;;;26.68;66.23
3428;BME280;1727;42.624;23.406;2022-08-23T13:11:30;94406.97;;;26.80;66.06
3428;BME280;1727;42.624;23.406;2022-08-23T13:13:57;94411.72;;;26.73;65.12
3428;BME280;1727;42.624;23.406;2022-08-23T13:16:28;94408.25;;;26.61;66.77
3428;BME280;1727;42.624;23.406;2022-08-23T13:19:14;94394.75;;;26.44;66.54
3428;BME280;1727;42.624;23.406;2022-08-23T13:21:42;94401.91;;;26.39;66.79
3428;BME280;1727;42.624;23.406;2022-08-23T13:24:33;94397.91;;;26.30;67.38
3428;BME280;1727;42.624;23.406;2022-08-23T13:27:14;94392.69;;;26.23;68.45
3428;BME280;1727;42.624;23.406;2022-08-23T13:29:48;94401.31;;;26.25;68.44
3428;BME280;1727;42.624;23.406;2022-08-23T13:32:37;94385.34;;;26.18;68.92
3428;BME280;1727;42.624;23.406;2022-08-23T13:35:26;94387.09;;;26.13;69.22